Time;durP1;ratioP1;P1;durP2;ratioP2;P2;SDS_P1;SDS_P2;PMS_P1;PMS_P2;Temp;Humidity;BMP_temperature;BMP_pressure;BME280_temperature;BME280_humidity;BME280_pressure;Samples;Min_cycle;Max_cycle;Signal;HPM_P1;HPM_P2
2022/01/14 00:02:19;;;;;;;15.68;14.18;;;22.80;66.20;;;;;;6231822;28;89128;-70
2022/01/14 00:05:21;;;;;;;15.98;14.52;;;22.80;66.20;;;;;;6228987;28;89075;-70
2022/01/14 00:08:23;;;;;;;16.25;14.75;;;22.80;66.20;;;;;;6229936;28;88338;-69
2022/01/14 00:11:29;;;;;;;15.20;13.80;;;22.80;66.10;;;;;;6217248;28;89054;-70
2022/01/14 00:14:44;;;;;;;15.80;14.30;;;22.90;66.20;;;;;;6229270;28;89418;-70
2022/01/14 00:17:45;;;;;;;15.95;14.45;;;22.80;66.20;;;;;;6229213;28;89466;-70
2022/01/14 00:20:47;;;;;;;14.90;13.50;;;22.80;66.20;;;;;;6231036;28;88722;-70
2022/01/14 00:23:52;;;;;;;14.93;13.52;;;22.90;66.30;;;;;;6229576;28;89248;-70
2022/01/14 00:33:35;;;;;;;15.27;13.85;;;22.80;66.20;;;;;;6216939;28;87134;-69
2022/01/14 00:36:37;;;;;;;14.73;13.32;;;22.80;66.20;;;;;;6227994;28;89084;-69
2022/01/14 00:39:39;;;;;;;14.73;13.32;;;22.80;66.20;;;;;;6230094;28;89114;-70
2022/01/14 00:42:43;;;;;;;15.23;13.77;;;22.80;66.20;;;;;;6226982;28;89497;-70
2022/01/14 00:45:45;;;;;;;15.63;14.13;;;22.80;66.20;;;;;;6224291;28;89114;-70
2022/01/14 00:48:47;;;;;;;15.60;14.10;;;22.80;66.20;;;;;;6232464;28;89146;-70
2022/01/14 00:51:49;;;;;;;15.23;13.73;;;22.80;66.20;;;;;;6213205;28;88355;-70
2022/01/14 00:54:52;;;;;;;16.08;14.55;;;22.80;66.20;;;;;;6227018;28;89288;-70
2022/01/14 01:01:21;;;;;;;15.68;14.18;;;22.80;66.20;;;;;;6152165;28;88562;-70
2022/01/14 01:04:28;;;;;;;16.00;14.50;;;22.80;66.20;;;;;;6224826;28;89410;-69
2022/01/14 01:07:30;;;;;;;16.52;14.93;;;22.80;66.20;;;;;;6232833;28;89208;-70
2022/01/14 01:10:34;;;;;;;16.52;14.93;;;22.80;66.20;;;;;;6233104;28;89117;-69
2022/01/14 01:13:42;;;;;;;17.45;15.75;;;22.80;66.20;;;;;;6229460;28;89189;-69
2022/01/14 01:16:44;;;;;;;17.35;15.65;;;22.80;66.20;;;;;;6233884;28;89107;-69
2022/01/14 01:19:46;;;;;;;16.95;15.35;;;22.80;66.20;;;;;;6232297;28;89123;-70
2022/01/14 01:22:50;;;;;;;17.23;15.52;;;22.80;66.20;;;;;;6233388;28;88757;-70
2022/01/14 01:25:58;;;;;;;17.92;16.15;;;22.80;66.20;;;;;;6233113;28;89102;-69
2022/01/14 01:29:17;;;;;;;17.33;15.63;;;22.80;66.20;;;;;;6233108;28;89100;-69
2022/01/14 01:32:19;;;;;;;16.95;15.35;;;22.80;66.20;;;;;;6230378;28;90386;-69
2022/01/14 01:35:21;;;;;;;17.73;16.02;;;22.80;66.20;;;;;;6232759;28;89933;-69
2022/01/14 01:38:24;;;;;;;17.73;16.02;;;22.80;66.20;;;;;;6234508;28;89060;-70
2022/01/14 01:41:26;;;;;;;17.55;15.82;;;22.70;66.20;;;;;;6231124;28;89307;-70
2022/01/14 01:44:30;;;;;;;16.80;15.20;;;22.80;66.30;;;;;;6231839;28;89126;-69
2022/01/14 01:47:32;;;;;;;17.60;15.90;;;22.70;66.20;;;;;;6233826;28;89404;-70
2022/01/14 01:50:36;;;;;;;17.27;15.57;;;22.70;66.20;;;;;;6222222;28;90006;-69
2022/01/14 01:53:38;;;;;;;17.80;16.10;;;22.70;66.20;;;;;;6208979;28;88549;-68
2022/01/14 01:56:40;;;;;;;16.90;15.30;;;22.70;66.20;;;;;;6226623;28;89050;-69
2022/01/14 01:59:44;;;;;;;17.25;15.55;;;22.70;66.20;;;;;;6219596;28;87947;-70
2022/01/14 02:02:48;;;;;;;17.27;15.57;;;22.70;66.20;;;;;;6223763;28;90019;-69
2022/01/14 02:05:50;;;;;;;17.83;16.13;;;22.70;66.20;;;;;;6223242;28;89655;-70
2022/01/14 02:08:52;;;;;;;17.80;16.10;;;22.70;66.20;;;;;;6231234;28;89037;-70
2022/01/14 02:11:54;;;;;;;17.75;15.95;;;22.70;66.20;;;;;;6234160;28;88983;-70
2022/01/14 02:15:09;;;;;;;17.38;15.68;;;22.70;66.20;;;;;;6229114;28;89086;-70
2022/01/14 02:18:32;;;;;;;17.33;15.63;;;22.70;66.20;;;;;;6231632;28;89104;-70
2022/01/14 02:25:03;;;;;;;16.05;14.55;;;22.70;66.20;;;;;;6228260;28;86574;-70
2022/01/14 02:28:07;;;;;;;16.30;14.73;;;22.80;66.30;;;;;;6230772;28;89477;-70
2022/01/14 02:31:09;;;;;;;16.35;14.82;;;22.70;66.20;;;;;;6219082;28;87898;-70
2022/01/14 02:34:12;;;;;;;16.73;15.13;;;22.70;66.20;;;;;;6230560;28;90344;-70
2022/01/14 02:37:19;;;;;;;16.05;14.45;;;22.70;66.20;;;;;;6231837;28;89238;-70
2022/01/14 02:40:22;;;;;;;16.38;14.68;;;22.70;66.20;;;;;;6230436;28;89104;-70
2022/01/14 02:43:25;;;;;;;16.63;15.05;;;22.70;66.20;;;;;;6233148;28;89144;-70
2022/01/14 02:46:27;;;;;;;15.70;14.20;;;22.70;66.20;;;;;;6231961;28;89283;-70
2022/01/14 02:49:31;;;;;;;15.60;14.10;;;22.70;66.20;;;;;;6226356;28;88818;-70
2022/01/14 02:52:53;;;;;;;15.60;14.10;;;22.70;66.20;;;;;;6231572;28;89043;-70
2022/01/14 02:55:56;;;;;;;15.65;14.05;;;22.70;66.20;;;;;;6206473;28;87228;-70
2022/01/14 02:59:01;;;;;;;15.15;13.65;;;22.70;66.20;;;;;;6232067;28;89190;-69
2022/01/14 03:02:04;;;;;;;15.82;14.32;;;22.70;66.20;;;;;;6232876;28;89045;-70
2022/01/14 03:05:08;;;;;;;15.55;13.93;;;22.70;66.20;;;;;;6217108;28;90051;-69
2022/01/14 03:08:11;;;;;;;15.10;13.68;;;22.70;66.20;;;;;;6230619;28;89110;-70
2022/01/14 03:11:16;;;;;;;15.63;14.13;;;22.70;66.20;;;;;;6223241;28;89167;-70
2022/01/14 03:14:22;;;;;;;15.23;13.73;;;22.70;66.20;;;;;;6226348;28;89095;-69
2022/01/14 03:17:24;;;;;;;14.57;13.18;;;22.70;66.20;;;;;;6231085;28;89432;-69
2022/01/14 03:20:45;;;;;;;13.82;12.52;;;22.80;66.30;;;;;;6213043;28;89279;-69
2022/01/14 03:24:01;;;;;;;14.43;13.02;;;22.70;66.20;;;;;;6226375;28;89159;-68
2022/01/14 03:27:04;;;;;;;14.73;13.32;;;22.70;66.20;;;;;;6225270;28;88451;-70
2022/01/14 03:30:07;;;;;;;14.57;13.18;;;22.70;66.20;;;;;;6209771;28;89135;-70
2022/01/14 03:33:09;;;;;;;14.15;12.73;;;22.70;66.20;;;;;;6231711;28;89028;-70
2022/01/14 03:36:12;;;;;;;13.60;12.30;;;22.70;66.20;;;;;;6230668;28;89865;-70
2022/01/14 03:39:34;;;;;;;13.73;12.43;;;22.70;66.20;;;;;;6223308;28;89453;-69
2022/01/14 03:42:36;;;;;;;13.43;12.15;;;22.70;66.20;;;;;;6223655;28;89034;-69
2022/01/14 03:45:38;;;;;;;13.00;11.73;;;22.70;66.20;;;;;;6216121;28;89056;-70
2022/01/14 03:48:40;;;;;;;12.88;11.68;;;22.70;66.20;;;;;;6229467;28;89465;-70
2022/01/14 03:51:43;;;;;;;12.90;11.60;;;22.70;66.20;;;;;;6228828;28;88925;-70
2022/01/14 03:54:48;;;;;;;12.98;11.77;;;22.70;66.10;;;;;;6224216;28;89357;-70
2022/01/14 03:57:50;;;;;;;11.88;10.77;;;22.70;66.10;;;;;;6220559;28;88575;-70
2022/01/14 04:00:52;;;;;;;13.38;12.07;;;22.70;66.10;;;;;;6227907;28;89082;-70
2022/01/14 04:03:54;;;;;;;12.45;11.25;;;22.70;65.90;;;;;;6219777;28;89054;-69
2022/01/14 04:06:56;;;;;;;12.45;11.25;;;22.70;65.90;;;;;;6230524;28;90015;-68
2022/01/14 04:09:59;;;;;;;12.05;10.85;;;22.70;66.00;;;;;;6216303;28;89102;-70
2022/01/14 04:13:05;;;;;;;11.95;10.85;;;22.70;66.00;;;;;;6215125;28;89075;-69
2022/01/14 04:16:07;;;;;;;12.40;11.20;;;22.70;66.00;;;;;;6219956;28;89426;-70
2022/01/14 04:19:09;;;;;;;11.43;10.43;;;22.70;66.10;;;;;;6227519;28;89071;-70
2022/01/14 04:22:11;;;;;;;11.90;10.75;;;22.70;66.00;;;;;;6235724;28;89097;-69
2022/01/14 04:25:14;;;;;;;11.65;10.55;;;22.70;66.00;;;;;;6233546;28;87978;-70
2022/01/14 04:28:18;;;;;;;10.90;9.90;;;22.70;66.00;;;;;;6234523;28;90321;-69
2022/01/14 04:31:20;;;;;;;10.75;9.75;;;22.70;66.00;;;;;;6233932;28;88838;-70
2022/01/14 04:34:22;;;;;;;11.70;10.60;;;22.70;66.00;;;;;;6236541;28;89081;-69
2022/01/14 04:37:24;;;;;;;11.02;9.93;;;22.70;65.90;;;;;;6233357;28;89942;-70
2022/01/14 04:40:28;;;;;;;11.15;10.15;;;22.70;65.90;;;;;;6224417;28;89037;-70
2022/01/14 04:43:30;;;;;;;11.10;10.00;;;22.70;65.90;;;;;;6231299;28;89104;-69
2022/01/14 04:50:07;;;;;;;10.48;9.48;;;22.80;65.90;;;;;;6220918;28;87658;-70
2022/01/14 04:53:10;;;;;;;10.70;9.70;;;22.80;65.90;;;;;;6235931;28;89176;-70
2022/01/14 04:56:13;;;;;;;10.50;9.55;;;22.80;65.90;;;;;;6235037;28;89052;-70
2022/01/14 04:59:15;;;;;;;10.20;9.30;;;22.80;65.80;;;;;;6232594;28;87255;-70
2022/01/14 05:02:37;;;;;;;10.52;9.63;;;22.80;65.80;;;;;;6211698;28;89335;-70
2022/01/14 05:05:42;;;;;;;9.75;8.85;;;22.80;65.80;;;;;;6210005;28;89114;-69
2022/01/14 05:08:44;;;;;;;9.70;8.80;;;22.80;65.80;;;;;;6233697;28;90046;-71
2022/01/14 05:11:53;;;;;;;9.70;8.80;;;22.80;65.80;;;;;;6226846;28;87965;-71
2022/01/14 05:14:55;;;;;;;9.63;8.73;;;22.80;65.90;;;;;;6233913;28;88844;-70
2022/01/14 05:17:57;;;;;;;9.50;8.60;;;22.80;65.80;;;;;;6234394;28;88937;-70
2022/01/14 05:20:59;;;;;;;9.05;8.23;;;22.70;65.70;;;;;;6233899;28;87998;-70
2022/01/14 05:24:01;;;;;;;9.40;8.55;;;22.80;65.80;;;;;;6234778;28;87937;-69
2022/01/14 05:27:05;;;;;;;8.98;8.18;;;22.80;65.80;;;;;;6232773;28;89012;-70
2022/01/14 05:30:09;;;;;;;10.00;9.10;;;22.80;65.90;;;;;;6232350;28;88963;-70
2022/01/14 05:33:12;;;;;;;8.98;8.18;;;22.80;65.80;;;;;;6233779;28;89394;-69
2022/01/14 05:36:14;;;;;;;9.13;8.32;;;22.80;65.80;;;;;;6232522;28;87965;-70
2022/01/14 05:39:20;;;;;;;9.10;8.30;;;22.70;65.70;;;;;;6231333;28;88848;-70
2022/01/14 05:42:23;;;;;;;8.45;7.65;;;22.80;65.80;;;;;;6231735;28;89180;-70
2022/01/14 05:45:25;;;;;;;8.27;7.55;;;22.80;65.90;;;;;;6233712;28;89065;-70
2022/01/14 05:48:27;;;;;;;8.27;7.55;;;22.80;65.70;;;;;;6232514;28;89368;-70
2022/01/14 05:51:29;;;;;;;8.52;7.72;;;22.80;65.70;;;;;;6234215;28;89067;-70
2022/01/14 05:54:31;;;;;;;8.40;7.60;;;22.80;65.70;;;;;;6233240;28;89467;-70
2022/01/14 05:57:37;;;;;;;8.25;7.55;;;22.90;65.70;;;;;;6232215;28;89905;-70
2022/01/14 06:00:39;;;;;;;8.32;7.53;;;22.90;65.80;;;;;;6220280;28;86984;-70
2022/01/14 06:03:41;;;;;;;8.50;7.70;;;22.80;65.70;;;;;;6233737;28;90061;-70
2022/01/14 06:06:43;;;;;;;8.38;7.60;;;22.80;65.70;;;;;;6231854;28;89095;-69
2022/01/14 06:09:45;;;;;;;8.27;7.47;;;22.80;65.70;;;;;;6233322;28;89978;-70
2022/01/14 06:12:48;;;;;;;7.78;7.07;;;22.80;65.70;;;;;;6232398;28;89052;-69
2022/01/14 06:15:50;;;;;;;7.82;7.13;;;22.80;65.70;;;;;;6213918;28;88986;-69
2022/01/14 06:18:52;;;;;;;8.00;7.30;;;22.80;65.70;;;;;;6225002;28;89329;-70
2022/01/14 06:21:54;;;;;;;7.57;6.88;;;22.80;65.80;;;;;;6231855;28;90299;-70
2022/01/14 06:24:58;;;;;;;7.57;6.88;;;22.80;65.70;;;;;;6233951;28;89218;-70
2022/01/14 06:28:02;;;;;;;8.13;7.43;;;22.80;65.80;;;;;;6231455;28;89165;-70
2022/01/14 06:31:04;;;;;;;7.13;6.53;;;22.80;65.90;;;;;;6220619;28;88299;-70
2022/01/14 06:34:06;;;;;;;7.78;7.07;;;22.80;65.80;;;;;;6221297;28;89158;-69
2022/01/14 06:37:08;;;;;;;7.35;6.65;;;22.80;65.80;;;;;;6230495;28;89047;-69
2022/01/14 06:40:11;;;;;;;7.43;6.72;;;22.80;65.80;;;;;;6231484;28;89770;-70
2022/01/14 06:43:15;;;;;;;7.20;6.50;;;22.90;65.80;;;;;;6231489;28;89129;-70
2022/01/14 06:49:36;;;;;;;7.25;6.55;;;22.90;65.70;;;;;;6226210;28;87180;-69
2022/01/14 06:52:38;;;;;;;7.65;6.95;;;22.90;65.70;;;;;;6220698;28;89140;-70
2022/01/14 06:55:40;;;;;;;7.47;6.78;;;22.90;65.70;;;;;;6219766;28;89026;-69
2022/01/14 06:58:44;;;;;;;7.30;6.60;;;22.90;65.70;;;;;;6217637;28;88295;-70
2022/01/14 07:01:46;;;;;;;7.15;6.55;;;22.80;65.70;;;;;;6210920;28;88670;-70
2022/01/14 07:04:48;;;;;;;6.88;6.28;;;22.80;65.70;;;;;;6213617;28;89054;-70
2022/01/14 07:07:50;;;;;;;7.18;6.50;;;22.80;65.70;;;;;;6224916;28;87954;-70
2022/01/14 07:10:52;;;;;;;6.82;6.22;;;22.80;65.70;;;;;;6224894;28;88861;-69
2022/01/14 07:13:56;;;;;;;6.80;6.20;;;22.90;65.80;;;;;;6231592;28;89059;-69
2022/01/14 07:16:58;;;;;;;6.65;6.05;;;22.90;65.80;;;;;;6231901;28;89107;-69
2022/01/14 07:20:06;;;;;;;7.18;6.47;;;22.80;65.70;;;;;;6231008;28;89074;-69
2022/01/14 07:23:08;;;;;;;6.90;6.30;;;22.80;65.70;;;;;;6230747;28;89434;-69
2022/01/14 07:26:10;;;;;;;6.63;6.03;;;22.80;65.70;;;;;;6229957;28;88738;-70
2022/01/14 07:29:14;;;;;;;6.50;5.90;;;22.80;65.70;;;;;;6229656;28;89177;-70
2022/01/14 07:32:16;;;;;;;6.38;5.80;;;22.90;65.90;;;;;;6231693;28;89430;-70
2022/01/14 07:35:18;;;;;;;6.97;6.38;;;22.90;65.80;;;;;;6230447;28;89045;-69
2022/01/14 07:38:20;;;;;;;6.57;5.97;;;22.90;65.70;;;;;;6231089;28;89155;-70
2022/01/14 07:41:22;;;;;;;6.53;5.93;;;22.90;65.70;;;;;;6217040;28;89193;-69
2022/01/14 07:44:26;;;;;;;6.20;5.60;;;22.90;65.70;;;;;;6230565;28;89092;-69
2022/01/14 07:47:28;;;;;;;6.20;5.70;;;22.90;65.70;;;;;;6218798;28;89115;-69
2022/01/14 07:50:30;;;;;;;6.40;5.80;;;22.90;65.60;;;;;;6229336;28;89026;-69
2022/01/14 07:53:32;;;;;;;6.38;5.78;;;22.90;65.70;;;;;;6234649;28;89104;-69
2022/01/14 07:56:36;;;;;;;6.65;5.95;;;22.90;65.70;;;;;;6236053;28;89069;-69
2022/01/14 07:59:41;;;;;;;6.43;5.82;;;22.90;65.70;;;;;;6234701;28;87919;-70
2022/01/14 08:02:43;;;;;;;5.75;5.25;;;22.90;65.70;;;;;;6232179;28;87469;-70
2022/01/14 08:05:47;;;;;;;6.32;5.72;;;22.90;65.70;;;;;;6226398;28;89057;-69
2022/01/14 08:08:49;;;;;;;6.28;5.68;;;22.90;65.80;;;;;;6234308;28;89284;-70
2022/01/14 08:11:52;;;;;;;6.10;5.50;;;22.90;65.70;;;;;;6236196;28;90098;-70
2022/01/14 08:14:58;;;;;;;5.70;5.20;;;22.90;65.70;;;;;;6234488;28;90224;-70
2022/01/14 08:18:01;;;;;;;6.07;5.47;;;22.90;65.70;;;;;;6224711;28;88147;-70
2022/01/14 08:21:03;;;;;;;5.75;5.25;;;22.90;65.70;;;;;;6225935;28;89631;-70
2022/01/14 08:24:05;;;;;;;5.97;5.40;;;22.90;65.70;;;;;;6236213;28;89080;-70
2022/01/14 08:27:08;;;;;;;5.80;5.30;;;22.90;65.70;;;;;;6234998;28;88922;-70
2022/01/14 08:30:13;;;;;;;6.28;5.68;;;22.90;65.70;;;;;;6234358;28;89163;-70
2022/01/14 08:33:15;;;;;;;6.03;5.53;;;22.90;65.70;;;;;;6234605;28;88332;-70
2022/01/14 08:36:18;;;;;;;5.82;5.32;;;22.90;65.70;;;;;;6235101;28;89136;-69
2022/01/14 08:39:20;;;;;;;5.75;5.25;;;23.00;65.70;;;;;;6233409;28;89087;-70
2022/01/14 08:42:22;;;;;;;5.78;5.28;;;22.90;65.60;;;;;;6233119;28;89283;-69
2022/01/14 08:45:26;;;;;;;5.65;5.15;;;22.90;65.70;;;;;;6220936;28;89268;-69
2022/01/14 08:48:28;;;;;;;6.05;5.50;;;22.90;65.70;;;;;;6220341;28;89071;-69
2022/01/14 08:51:30;;;;;;;5.60;5.10;;;23.00;65.70;;;;;;6232723;28;89436;-69
2022/01/14 08:54:33;;;;;;;5.82;5.30;;;23.00;65.70;;;;;;6221569;28;89202;-70
2022/01/14 08:57:35;;;;;;;5.80;5.30;;;22.90;65.70;;;;;;6232230;28;89072;-69
2022/01/14 09:00:39;;;;;;;5.75;5.15;;;23.00;65.70;;;;;;6223001;28;89042;-70
2022/01/14 09:03:41;;;;;;;5.70;5.20;;;23.00;65.70;;;;;;6221765;28;91280;-69
2022/01/14 09:06:43;;;;;;;5.53;5.03;;;23.00;65.70;;;;;;6234937;28;89243;-70
2022/01/14 09:09:45;;;;;;;5.80;5.30;;;23.00;65.70;;;;;;6225974;28;89051;-70
2022/01/14 09:12:47;;;;;;;5.47;4.97;;;23.00;65.80;;;;;;6223417;28;90035;-69
2022/01/14 09:15:51;;;;;;;5.30;4.80;;;23.00;65.80;;;;;;6227735;28;89221;-69
2022/01/14 09:19:11;;;;;;;5.40;4.90;;;23.00;65.80;;;;;;6235260;28;89140;-70
2022/01/14 09:22:15;;;;;;;4.75;4.35;;;23.00;65.80;;;;;;6234888;28;89062;-70
2022/01/14 09:25:19;;;;;;;5.32;4.82;;;23.00;65.80;;;;;;6233229;28;89006;-70
2022/01/14 09:28:21;;;;;;;5.38;4.88;;;23.00;65.70;;;;;;6234391;28;89432;-69
2022/01/14 09:31:24;;;;;;;5.65;5.15;;;23.00;65.70;;;;;;6234784;28;89103;-68
2022/01/14 09:34:26;;;;;;;5.50;5.00;;;23.00;65.70;;;;;;6233878;28;88427;-69
2022/01/14 09:37:28;;;;;;;5.55;4.93;;;23.10;65.90;;;;;;6233482;28;89123;-70
2022/01/14 09:40:30;;;;;;;5.22;4.80;;;23.00;65.70;;;;;;6232584;28;88278;-70
2022/01/14 09:43:36;;;;;;;4.63;4.22;;;23.10;65.90;;;;;;6211103;28;90135;-70
2022/01/14 09:46:39;;;;;;;5.53;5.03;;;23.10;65.90;;;;;;6218987;28;88974;-70
2022/01/14 09:49:41;;;;;;;4.90;4.50;;;23.10;65.90;;;;;;6226623;28;89066;-70
2022/01/14 09:52:45;;;;;;;5.47;4.97;;;23.10;65.90;;;;;;6234293;28;89146;-70
2022/01/14 09:55:47;;;;;;;5.20;4.72;;;23.10;65.90;;;;;;6232280;28;88818;-69
2022/01/14 09:58:50;;;;;;;5.18;4.68;;;23.10;65.90;;;;;;6232366;28;88994;-70
2022/01/14 10:01:54;;;;;;;5.07;4.68;;;23.10;66.00;;;;;;6222804;28;89253;-69
2022/01/14 10:04:56;;;;;;;4.90;4.50;;;23.10;66.00;;;;;;6230036;28;88531;-69
2022/01/14 10:08:08;;;;;;;5.25;4.75;;;23.10;66.00;;;;;;6235280;28;88985;-69
2022/01/14 10:11:10;;;;;;;5.20;4.80;;;23.10;66.00;;;;;;6214255;28;89124;-69
2022/01/14 10:14:31;;;;;;;5.05;4.55;;;23.10;66.00;;;;;;6206266;28;88735;-70
2022/01/14 10:17:39;;;;;;;4.60;4.20;;;23.20;66.10;;;;;;6227143;28;88974;-70
2022/01/14 10:20:41;;;;;;;4.93;4.53;;;23.10;66.90;;;;;;6233610;28;89062;-69
2022/01/14 10:23:46;;;;;;;5.00;4.50;;;23.20;66.10;;;;;;6233827;28;89021;-68
2022/01/14 10:26:53;;;;;;;4.80;4.40;;;23.20;66.10;;;;;;6217335;28;88978;-70
2022/01/14 10:29:58;;;;;;;4.57;4.18;;;23.20;66.00;;;;;;6223380;28;88964;-70
2022/01/14 10:33:05;;;;;;;4.70;4.30;;;23.20;66.00;;;;;;6230190;28;89147;-70
2022/01/14 10:36:07;;;;;;;4.70;4.30;;;23.20;66.00;;;;;;6230579;28;88412;-70
2022/01/14 10:39:24;;;;;;;5.07;4.60;;;23.20;66.00;;;;;;6233329;28;88001;-71
2022/01/14 10:42:29;;;;;;;4.40;4.00;;;23.20;66.00;;;;;;6220162;28;89163;-70
2022/01/14 10:45:32;;;;;;;4.50;4.10;;;23.30;66.10;;;;;;6220543;28;90464;-70
2022/01/14 10:48:38;;;;;;;4.90;4.50;;;23.30;66.10;;;;;;6218192;28;89415;-70
2022/01/14 10:51:40;;;;;;;4.45;4.05;;;23.30;66.10;;;;;;6221308;28;90811;-70
2022/01/14 10:54:43;;;;;;;4.50;4.10;;;23.30;66.10;;;;;;6231724;28;89385;-69
2022/01/14 10:57:49;;;;;;;4.60;4.20;;;23.30;66.00;;;;;;6220303;28;89411;-70
2022/01/14 11:00:57;;;;;;;4.68;4.28;;;23.30;66.00;;;;;;6228881;28;87958;-70
2022/01/14 11:04:10;;;;;;;4.70;4.30;;;23.30;65.90;;;;;;6220402;28;89147;-70
2022/01/14 11:07:23;;;;;;;4.68;4.28;;;23.30;65.90;;;;;;6222266;28;88766;-69
2022/01/14 11:10:27;;;;;;;4.60;4.20;;;23.40;66.10;;;;;;6232022;28;89116;-71
2022/01/14 11:13:29;;;;;;;4.35;4.03;;;23.40;65.90;;;;;;6233131;28;89089;-70
2022/01/14 11:16:31;;;;;;;4.20;3.80;;;23.40;65.90;;;;;;6231276;28;90113;-70
2022/01/14 11:19:35;;;;;;;4.57;4.18;;;23.40;65.90;;;;;;6225341;28;89193;-70
2022/01/14 11:26:03;;;;;;;4.43;4.03;;;23.40;66.10;;;;;;6232071;28;87495;-70
2022/01/14 11:29:09;;;;;;;4.20;3.90;;;23.30;66.10;;;;;;6232074;28;89100;-71
2022/01/14 11:32:12;;;;;;;4.40;4.05;;;23.40;66.10;;;;;;6223920;28;89075;-70
2022/01/14 11:35:22;;;;;;;4.30;3.90;;;23.30;66.10;;;;;;6226938;28;89073;-70
2022/01/14 11:38:45;;;;;;;4.20;3.90;;;23.40;66.20;;;;;;6232981;28;87350;-70
2022/01/14 11:41:53;;;;;;;4.30;3.90;;;23.30;66.20;;;;;;6230256;28;89127;-70
2022/01/14 11:44:57;;;;;;;4.05;3.75;;;23.30;66.20;;;;;;6217893;28;89006;-70
2022/01/14 11:48:03;;;;;;;4.50;4.10;;;23.30;66.20;;;;;;6230128;28;90041;-70
2022/01/14 11:51:08;;;;;;;3.80;3.50;;;23.30;66.20;;;;;;6225514;28;88930;-71
2022/01/14 11:54:10;;;;;;;4.20;3.90;;;23.30;66.20;;;;;;6218698;28;89141;-70
2022/01/14 11:57:33;;;;;;;3.90;3.60;;;23.40;66.30;;;;;;6229872;28;89372;-70
2022/01/14 12:00:40;;;;;;;3.97;3.67;;;23.30;66.20;;;;;;6232077;28;87916;-70
2022/01/14 12:03:51;;;;;;;4.05;3.75;;;23.40;66.20;;;;;;6230526;28;89287;-70
2022/01/14 12:07:00;;;;;;;4.10;3.72;;;23.30;66.20;;;;;;6230982;28;89162;-70
2022/01/14 12:10:07;;;;;;;3.92;3.63;;;23.30;66.20;;;;;;6230674;28;88433;-70
2022/01/14 12:13:22;;;;;;;3.72;3.42;;;23.30;66.30;;;;;;6230912;28;89308;-70
2022/01/14 12:19:55;;;;;;;4.05;3.65;;;23.40;66.40;;;;;;6229781;28;90016;-70
2022/01/14 12:23:09;;;;;;;3.63;3.33;;;23.40;66.40;;;;;;6219043;28;89024;-70
2022/01/14 12:26:16;;;;;;;3.70;3.40;;;23.40;66.40;;;;;;6217420;28;89264;-71
2022/01/14 12:29:18;;;;;;;4.05;3.75;;;23.30;66.40;;;;;;6219000;28;89085;-70
2022/01/14 12:32:21;;;;;;;4.32;3.92;;;23.30;66.40;;;;;;6217515;28;89021;-71
2022/01/14 12:35:35;;;;;;;3.72;3.42;;;23.40;66.50;;;;;;6227843;28;88175;-70
2022/01/14 12:38:40;;;;;;;3.80;3.50;;;23.40;66.40;;;;;;6230367;28;89161;-70
2022/01/14 12:41:42;;;;;;;3.38;3.08;;;23.40;67.40;;;;;;6234280;28;89542;-71
2022/01/14 12:44:45;;;;;;;3.75;3.45;;;23.40;66.40;;;;;;6235054;28;89575;-70
2022/01/14 12:47:51;;;;;;;3.85;3.55;;;23.40;66.50;;;;;;6222329;28;89062;-71
2022/01/14 12:51:04;;;;;;;3.38;3.08;;;23.40;66.50;;;;;;6233450;28;90125;-71
2022/01/14 12:54:11;;;;;;;3.70;3.40;;;23.40;66.60;;;;;;6208547;28;89025;-70
2022/01/14 12:57:16;;;;;;;3.80;3.50;;;23.40;66.50;;;;;;6222207;28;88881;-71
2022/01/14 13:00:18;;;;;;;3.70;3.40;;;23.40;66.60;;;;;;6219719;28;88999;-71
2022/01/14 13:03:23;;;;;;;3.80;3.50;;;23.40;66.60;;;;;;6233793;28;89165;-70
2022/01/14 13:06:25;;;;;;;3.30;3.00;;;23.40;66.70;;;;;;6222312;28;87990;-71
2022/01/14 13:09:31;;;;;;;3.60;3.30;;;23.40;66.70;;;;;;6233949;28;89339;-71
2022/01/14 13:12:37;;;;;;;3.40;3.10;;;23.40;66.70;;;;;;6235602;28;87198;-70
2022/01/14 13:15:39;;;;;;;3.33;3.03;;;23.40;67.60;;;;;;6230670;28;89266;-70
2022/01/14 13:18:45;;;;;;;3.50;3.20;;;23.40;66.70;;;;;;6207725;28;89138;-71
2022/01/14 13:21:47;;;;;;;3.63;3.33;;;23.40;66.70;;;;;;6230547;28;89995;-71
2022/01/14 13:24:53;;;;;;;3.40;3.00;;;23.40;66.70;;;;;;6234246;28;89021;-71
2022/01/14 13:27:58;;;;;;;3.70;3.40;;;23.40;66.70;;;;;;6233417;28;89278;-70
2022/01/14 13:31:00;;;;;;;3.80;3.50;;;23.40;66.70;;;;;;6221324;28;87956;-71
2022/01/14 13:34:02;;;;;;;3.22;2.92;;;23.40;66.70;;;;;;6232254;28;89144;-71
2022/01/14 13:37:05;;;;;;;3.42;3.13;;;23.40;66.70;;;;;;6231827;28;89208;-71
2022/01/14 13:40:13;;;;;;;3.42;3.13;;;23.40;66.70;;;;;;6213185;28;89059;-71
2022/01/14 13:43:19;;;;;;;3.40;3.10;;;23.40;66.70;;;;;;6228448;28;88346;-70
2022/01/14 13:46:21;;;;;;;3.17;2.97;;;23.40;66.70;;;;;;6220005;28;90150;-71
2022/01/14 13:49:24;;;;;;;3.40;3.10;;;23.40;66.80;;;;;;6228956;28;89447;-71
2022/01/14 13:52:31;;;;;;;3.05;2.85;;;23.30;66.70;;;;;;6207353;28;89976;-71
2022/01/14 13:55:55;;;;;;;3.05;2.78;;;23.40;66.70;;;;;;6231747;28;88982;-71
2022/01/14 13:59:01;;;;;;;3.40;3.10;;;23.40;66.70;;;;;;6208060;28;87970;-71
2022/01/14 14:02:05;;;;;;;2.92;2.72;;;23.30;66.60;;;;;;6219402;28;88974;-71
2022/01/14 14:05:08;;;;;;;3.17;2.90;;;23.30;66.60;;;;;;6233875;28;89202;-71
2022/01/14 14:08:18;;;;;;;3.20;2.90;;;23.40;66.70;;;;;;6232677;28;88345;-70
2022/01/14 14:18:12;;;;;;;3.00;2.80;;;23.30;66.60;;;;;;6220233;28;87274;-71
2022/01/14 14:21:17;;;;;;;3.22;3.00;;;23.40;66.70;;;;;;6227140;28;89129;-71
2022/01/14 14:24:19;;;;;;;3.38;3.08;;;23.40;66.70;;;;;;6222131;28;89983;-71
2022/01/14 14:27:23;;;;;;;3.15;2.90;;;23.30;66.60;;;;;;6208350;28;89093;-71
2022/01/14 14:30:27;;;;;;;2.80;2.60;;;23.30;66.60;;;;;;6222155;28;87797;-71
2022/01/14 14:33:29;;;;;;;3.10;2.80;;;23.40;66.80;;;;;;6226493;28;89070;-70
2022/01/14 14:36:33;;;;;;;2.83;2.63;;;23.30;66.70;;;;;;6231686;28;89090;-71
2022/01/14 14:39:35;;;;;;;3.40;3.10;;;23.30;66.70;;;;;;6232898;28;88069;-71
2022/01/14 14:42:39;;;;;;;3.28;2.97;;;23.30;66.90;;;;;;6231288;28;88066;-71
2022/01/14 14:45:41;;;;;;;3.10;2.90;;;23.30;66.70;;;;;;6231518;28;88337;-71
2022/01/14 14:48:43;;;;;;;2.90;2.70;;;23.30;66.70;;;;;;6213776;28;89091;-71
2022/01/14 14:51:47;;;;;;;2.97;2.78;;;23.40;66.70;;;;;;6226062;28;88543;-71
2022/01/14 14:54:49;;;;;;;2.88;2.65;;;23.30;66.70;;;;;;6211226;28;89994;-71
2022/01/14 14:57:53;;;;;;;3.17;2.90;;;23.40;66.70;;;;;;6218054;28;89053;-71
2022/01/14 15:00:55;;;;;;;3.13;2.92;;;23.30;66.60;;;;;;6229429;28;89127;-71
2022/01/14 15:03:57;;;;;;;2.90;2.70;;;23.30;66.60;;;;;;6219186;28;89155;-70
2022/01/14 15:06:59;;;;;;;3.03;2.83;;;23.30;66.60;;;;;;6219751;28;89177;-71
2022/01/14 15:10:01;;;;;;;2.90;2.70;;;23.40;66.60;;;;;;6231133;28;89146;-72
2022/01/14 15:13:04;;;;;;;2.95;2.70;;;23.40;66.60;;;;;;6231983;28;89535;-71
2022/01/14 15:19:28;;;;;;;3.30;3.00;;;23.30;66.60;;;;;;6226274;28;88533;-71
2022/01/14 15:22:30;;;;;;;2.97;2.78;;;23.40;66.60;;;;;;6218081;28;88906;-70
2022/01/14 15:25:33;;;;;;;3.08;2.78;;;23.30;66.60;;;;;;6229399;28;89973;-71
2022/01/14 15:28:36;;;;;;;3.40;3.10;;;23.30;66.60;;;;;;6219321;28;88973;-71
2022/01/14 15:31:38;;;;;;;3.30;3.00;;;23.30;66.60;;;;;;6230496;28;89287;-72
2022/01/14 15:34:40;;;;;;;3.30;3.00;;;23.30;66.60;;;;;;6228823;28;89602;-71
2022/01/14 15:37:43;;;;;;;3.30;3.00;;;23.30;66.60;;;;;;6227889;28;89014;-71
2022/01/14 15:40:45;;;;;;;3.47;3.17;;;23.30;66.60;;;;;;6220517;28;89076;-71
2022/01/14 15:43:48;;;;;;;3.30;3.00;;;23.30;66.60;;;;;;6219997;28;89138;-71
2022/01/14 15:46:51;;;;;;;2.80;2.60;;;23.30;66.60;;;;;;6219176;28;88292;-71
2022/01/14 15:49:53;;;;;;;3.50;3.20;;;23.30;66.60;;;;;;6228191;28;89087;-71
2022/01/14 15:52:55;;;;;;;3.10;2.85;;;23.30;66.60;;;;;;6215148;28;89192;-71
2022/01/14 15:55:58;;;;;;;2.95;2.75;;;23.30;66.60;;;;;;6219803;28;90049;-71
2022/01/14 15:59:02;;;;;;;3.33;3.03;;;23.30;66.50;;;;;;6205649;28;89136;-71
2022/01/14 16:02:04;;;;;;;3.40;3.10;;;23.30;66.40;;;;;;6231302;28;89182;-72
2022/01/14 16:05:07;;;;;;;3.20;2.90;;;23.30;66.40;;;;;;6229624;28;89138;-71
2022/01/14 16:08:09;;;;;;;3.00;2.80;;;23.30;66.40;;;;;;6217130;28;88999;-71
2022/01/14 16:11:11;;;;;;;3.00;2.80;;;23.30;66.40;;;;;;6220479;28;88983;-71
2022/01/14 16:14:22;;;;;;;3.30;3.00;;;23.30;66.40;;;;;;6230995;28;89155;-71
2022/01/14 16:17:24;;;;;;;3.45;3.15;;;23.30;66.40;;;;;;6216601;28;88414;-71
2022/01/14 16:20:27;;;;;;;3.42;3.13;;;23.30;66.40;;;;;;6221529;28;89170;-71
2022/01/14 16:23:29;;;;;;;3.40;3.10;;;23.30;66.40;;;;;;6223477;28;89006;-69
2022/01/14 16:26:31;;;;;;;3.38;3.08;;;23.30;66.50;;;;;;6234003;28;90359;-71
2022/01/14 16:29:46;;;;;;;3.03;2.72;;;23.30;66.50;;;;;;6234519;28;89093;-71